createdAt,value
2022-12-16T00:11:02.587Z,99140.38
2022-12-16T00:13:40.027Z,99144.53
2022-12-16T00:16:15.060Z,99145.34
2022-12-16T00:18:43.950Z,99142.81
2022-12-16T00:27:37.451Z,99151.44
2022-12-16T00:30:21.841Z,99149.84
2022-12-16T00:32:54.289Z,99150.53
2022-12-16T00:35:46.492Z,99152.47
2022-12-16T00:38:22.253Z,99148.97
2022-12-16T00:40:53.756Z,99145.28
2022-12-16T00:51:41.063Z,99159.88
2022-12-16T00:54:15.041Z,99158.66
2022-12-16T00:56:46.887Z,99158.66
2022-12-16T00:59:19.411Z,99161.63
2022-12-16T01:01:55.107Z,99170.66
2022-12-16T01:04:34.077Z,99172.28
2022-12-16T01:07:21.318Z,99173.06
2022-12-16T01:12:53.963Z,99172.06
2022-12-16T01:30:27.043Z,99205.75
2022-12-16T01:32:59.399Z,99205.94
2022-12-16T01:35:55.331Z,99204.53
2022-12-16T01:41:28.400Z,99214.84
2022-12-16T01:47:19.303Z,99218.03
2022-12-16T01:49:51.762Z,99222.91
2022-12-16T01:55:27.185Z,99231.63
2022-12-16T02:00:52.385Z,99224.22
2022-12-16T02:03:44.464Z,99225.25
2022-12-16T02:06:38.420Z,99232.91
2022-12-16T02:54:14.852Z,99211.53
2022-12-16T02:56:49.925Z,99210.97
2022-12-16T02:59:23.693Z,99211.13
2022-12-16T03:01:55.986Z,99213.00
2022-12-16T03:04:27.559Z,99203.66
2022-12-16T03:06:56.457Z,99213.81
2022-12-16T03:09:27.932Z,99211.34
2022-12-16T03:11:56.448Z,99208.78
2022-12-16T03:14:26.755Z,99211.25
2022-12-16T03:16:54.578Z,99212.00
2022-12-16T03:19:23.934Z,99219.63
2022-12-16T03:21:56.498Z,99216.50
2022-12-16T03:24:26.809Z,99212.97
2022-12-16T03:26:57.609Z,99222.31
2022-12-16T03:29:28.834Z,99216.31
2022-12-16T03:31:59.030Z,99222.94
2022-12-16T03:34:32.334Z,99216.81
2022-12-16T03:37:04.157Z,99227.69
2022-12-16T03:39:34.427Z,99220.91
2022-12-16T03:42:03.773Z,99226.38
2022-12-16T03:44:33.252Z,99230.06
2022-12-16T03:47:01.068Z,99228.59
2022-12-16T03:49:28.998Z,99235.88
2022-12-16T03:51:56.787Z,99243.00
2022-12-16T03:54:25.839Z,99245.53
2022-12-16T03:56:54.914Z,99246.97
2022-12-16T03:59:22.719Z,99245.13
2022-12-16T04:01:50.466Z,99246.06
2022-12-16T04:04:18.500Z,99243.69
2022-12-16T04:07:06.263Z,99248.94
2022-12-16T04:51:20.585Z,99293.00
2022-12-16T04:54:08.893Z,99304.75
2022-12-16T04:56:55.096Z,99307.94
2022-12-16T05:03:19.094Z,99303.03
2022-12-16T05:09:07.418Z,99319.09
2022-12-16T05:11:55.287Z,99322.72
2022-12-16T05:14:42.346Z,99338.88
2022-12-16T05:20:50.553Z,99347.13
2022-12-16T05:26:39.627Z,99344.34
2022-12-16T05:29:26.953Z,99346.69
2022-12-16T05:35:24.988Z,99359.22
2022-12-16T05:38:10.738Z,99354.63
2022-12-16T05:40:58.875Z,99370.47
2022-12-16T05:43:45.187Z,99374.09
2022-12-16T05:46:30.729Z,99372.28
2022-12-16T05:49:22.761Z,99380.63
2022-12-16T05:52:08.487Z,99380.47
2022-12-16T05:54:56.142Z,99398.84
2022-12-16T05:57:44.388Z,99389.00
2022-12-16T06:00:31.408Z,99400.16
2022-12-16T06:03:17.050Z,99406.63
2022-12-16T06:06:02.694Z,99401.53
2022-12-16T06:08:48.142Z,99408.06
2022-12-16T06:11:37.541Z,99414.78
2022-12-16T06:14:25.520Z,99413.03
2022-12-16T06:17:10.902Z,99413.88
2022-12-16T06:19:56.499Z,99415.72
2022-12-16T06:22:41.835Z,99429.28
2022-12-16T06:25:28.081Z,99433.59
2022-12-16T06:28:14.266Z,99436.88
2022-12-16T06:31:08.658Z,99443.59
2022-12-16T06:33:55.226Z,99450.31
2022-12-16T06:36:42.155Z,99447.09
2022-12-16T06:39:27.952Z,99446.44
2022-12-16T06:42:15.519Z,99464.16
2022-12-16T06:45:01.400Z,99460.78
2022-12-16T06:47:48.900Z,99470.81
2022-12-16T06:50:34.102Z,99465.63
2022-12-16T06:53:19.847Z,99473.25
2022-12-16T06:56:05.516Z,99475.09
2022-12-16T06:58:52.678Z,99481.00
2022-12-16T07:01:38.159Z,99475.94
2022-12-16T07:04:25.641Z,99490.25
2022-12-16T07:07:11.067Z,99492.75
2022-12-16T07:09:56.885Z,99489.66
2022-12-16T07:12:42.483Z,99495.72
2022-12-16T07:15:30.875Z,99510.81
2022-12-16T07:18:20.135Z,99512.50
2022-12-16T07:21:06.768Z,99514.22
2022-12-16T07:23:51.885Z,99518.38
2022-12-16T07:26:39.037Z,99528.38
2022-12-16T07:29:24.516Z,99528.34
2022-12-16T07:32:10.238Z,99544.34
2022-12-16T07:34:56.352Z,99540.13
2022-12-16T07:37:43.886Z,99547.69
2022-12-16T07:40:29.932Z,99556.16
2022-12-16T07:43:20.057Z,99555.25
2022-12-16T07:46:05.553Z,99558.53
2022-12-16T07:48:52.800Z,99562.66
2022-12-16T07:51:38.546Z,99572.69
2022-12-16T07:54:26.659Z,99578.47
2022-12-16T07:57:14.578Z,99581.75
2022-12-16T08:00:00.470Z,99584.22
2022-12-16T08:02:46.060Z,99590.03
2022-12-16T08:05:32.915Z,99594.19
2022-12-16T08:08:18.416Z,99601.72
2022-12-16T08:11:06.240Z,99613.34
2022-12-16T08:13:52.717Z,99616.59
2022-12-16T08:16:40.008Z,99618.94
2022-12-16T08:19:25.366Z,99619.69
2022-12-16T08:22:13.326Z,99619.56
2022-12-16T08:24:58.782Z,99629.69
2022-12-16T08:27:46.347Z,99626.25
2022-12-16T08:30:32.935Z,99629.50
2022-12-16T08:33:20.053Z,99631.88
2022-12-16T08:36:08.935Z,99638.69
2022-12-16T08:38:55.833Z,99644.34
2022-12-16T08:41:42.274Z,99649.94
2022-12-16T08:44:29.013Z,99651.19
2022-12-16T08:47:14.516Z,99655.84
2022-12-16T08:50:02.435Z,99664.84
2022-12-16T08:52:48.141Z,99660.28
2022-12-16T08:55:33.894Z,99671.72
2022-12-16T08:58:18.898Z,99675.44
2022-12-16T09:01:07.660Z,99675.03
2022-12-16T09:03:54.217Z,99683.63
2022-12-16T09:06:46.103Z,99685.03
2022-12-16T09:09:32.501Z,99693.41
2022-12-16T09:12:17.954Z,99688.81
2022-12-16T09:15:03.892Z,99692.56
2022-12-16T09:17:53.808Z,99699.53
2022-12-16T09:20:50.475Z,99699.13
2022-12-16T09:23:37.826Z,99696.28
2022-12-16T09:26:23.757Z,99701.53
2022-12-16T09:29:10.352Z,99703.09
2022-12-16T09:31:57.726Z,99701.75
2022-12-16T09:34:45.159Z,99697.44
2022-12-16T09:37:30.982Z,99708.47
2022-12-16T09:40:22.352Z,99709.88
2022-12-16T09:43:41.476Z,99713.19
2022-12-16T09:46:35.489Z,99713.66
2022-12-16T09:49:31.337Z,99716.00
2022-12-16T09:52:20.478Z,99717.59
2022-12-16T09:55:08.666Z,99726.56
2022-12-16T09:57:55.640Z,99724.94
2022-12-16T10:00:42.257Z,99726.75
2022-12-16T10:03:36.986Z,99729.59
2022-12-16T10:06:29.086Z,99726.38
2022-12-16T10:09:26.707Z,99721.97
2022-12-16T10:12:18.599Z,99720.81
2022-12-16T10:15:08.539Z,99726.78
2022-12-16T10:17:56.618Z,99731.34
2022-12-16T10:20:49.061Z,99728.44
2022-12-16T10:23:41.906Z,99737.94
2022-12-16T10:26:36.214Z,99733.63
2022-12-16T10:29:25.663Z,99738.91
2022-12-16T10:32:16.896Z,99737.06
2022-12-16T10:35:03.210Z,99747.88
2022-12-16T10:37:53.664Z,99744.44
2022-12-16T10:40:45.671Z,99737.72
2022-12-16T10:43:37.917Z,99740.81
2022-12-16T10:46:29.480Z,99737.22
2022-12-16T10:49:17.008Z,99745.44
2022-12-16T10:52:06.912Z,99748.84
2022-12-16T10:55:00.452Z,99749.50
2022-12-16T10:57:52.064Z,99749.28
2022-12-16T11:00:57.460Z,99757.84
2022-12-16T11:03:47.840Z,99757.97
2022-12-16T11:06:38.544Z,99754.63
2022-12-16T11:09:34.239Z,99754.94
2022-12-16T11:12:32.498Z,99756.25
2022-12-16T11:15:29.316Z,99747.75
2022-12-16T11:18:23.686Z,99753.00
2022-12-16T11:21:23.608Z,99749.97
2022-12-16T11:24:25.785Z,99760.88
2022-12-16T11:27:16.356Z,99754.78
2022-12-16T11:30:09.088Z,99757.06
2022-12-16T11:32:56.364Z,99773.22
2022-12-16T11:35:45.755Z,99761.69
2022-12-16T11:38:33.032Z,99764.69
2022-12-16T11:44:38.203Z,99768.97
2022-12-16T11:47:30.325Z,99768.38
2022-12-16T11:50:17.771Z,99770.25
2022-12-16T11:53:15.169Z,99775.34
2022-12-16T11:56:07.740Z,99771.41
2022-12-16T11:59:05.084Z,99771.41
2022-12-16T12:01:52.781Z,99772.63
2022-12-16T12:04:43.770Z,99777.28
2022-12-16T12:07:46.332Z,99792.22
2022-12-16T12:10:44.762Z,99793.47
2022-12-16T12:13:40.061Z,99792.66
2022-12-16T12:16:32.961Z,99797.88
2022-12-16T12:22:28.725Z,99799.66
2022-12-16T12:25:23.752Z,99795.94
2022-12-16T12:28:17.570Z,99794.09
2022-12-16T12:31:08.247Z,99803.03
2022-12-16T12:33:57.068Z,99804.31
2022-12-16T12:36:48.883Z,99812.13
2022-12-16T12:39:37.871Z,99808.25
2022-12-16T12:42:31.965Z,99805.28
2022-12-16T12:45:24.353Z,99803.84
2022-12-16T12:48:15.313Z,99815.50
2022-12-16T12:51:03.075Z,99821.16
2022-12-16T12:53:58.252Z,99826.53
2022-12-16T12:56:52.443Z,99829.44
2022-12-16T12:59:46.114Z,99833.97
2022-12-16T13:02:38.887Z,99834.03
2022-12-16T13:05:31.788Z,99832.72
2022-12-16T13:09:07.197Z,99846.09
2022-12-16T13:11:53.173Z,99845.59
2022-12-16T13:15:00.825Z,99842.53
2022-12-16T13:17:48.304Z,99838.19
2022-12-16T13:20:55.021Z,99845.84
2022-12-16T13:23:48.333Z,99848.25
2022-12-16T13:26:36.382Z,99845.34
2022-12-16T13:29:28.531Z,99848.56
2022-12-16T13:32:24.660Z,99854.56
2022-12-16T13:38:19.929Z,99859.97
2022-12-16T13:41:14.093Z,99865.22
2022-12-16T13:44:12.164Z,99863.16
2022-12-16T13:46:59.892Z,99868.41
2022-12-16T13:50:07.190Z,99874.31
2022-12-16T13:53:08.446Z,99873.81
2022-12-16T13:55:59.118Z,99879.66
2022-12-16T13:58:54.263Z,99886.53
2022-12-16T14:01:53.765Z,99887.66
2022-12-16T14:04:45.785Z,99891.28
2022-12-16T14:07:32.825Z,99902.63
2022-12-16T14:10:19.717Z,99901.63
2022-12-16T14:13:12.758Z,99911.88
2022-12-16T14:16:05.409Z,99912.09
2022-12-16T14:18:57.515Z,99920.47
2022-12-16T14:21:53.091Z,99921.47
2022-12-16T14:24:44.946Z,99922.94
2022-12-16T14:27:40.736Z,99924.91
2022-12-16T14:30:37.019Z,99929.88
2022-12-16T14:33:36.047Z,99940.31
2022-12-16T14:36:21.696Z,99934.66
2022-12-16T14:39:08.757Z,99938.88
2022-12-16T14:41:58.191Z,99935.88
2022-12-16T14:44:47.432Z,99942.09
2022-12-16T14:47:36.793Z,99951.03
2022-12-16T14:50:38.864Z,99953.09
2022-12-16T14:53:36.109Z,99950.09
2022-12-16T14:56:29.532Z,99957.84
2022-12-16T14:59:33.720Z,99963.81
2022-12-16T15:02:34.172Z,99970.59
2022-12-16T15:05:27.290Z,99978.28
2022-12-16T15:08:12.960Z,99976.78
2022-12-16T15:11:15.065Z,99984.34
2022-12-16T15:14:03.871Z,99985.09
2022-12-16T15:20:09.154Z,99996.09
2022-12-16T15:22:57.043Z,100000.41
2022-12-16T15:25:45.488Z,100011.28
2022-12-16T15:28:44.188Z,100009.13
2022-12-16T15:31:34.401Z,100020.88
2022-12-16T15:34:39.082Z,100034.59
2022-12-16T15:40:39.631Z,100033.94
2022-12-16T15:43:26.978Z,100034.91
2022-12-16T15:46:13.403Z,100040.03
2022-12-16T15:48:59.391Z,100039.31
2022-12-16T15:51:48.437Z,100046.91
2022-12-16T15:54:37.857Z,100047.16
2022-12-16T15:57:38.014Z,100047.19
2022-12-16T16:00:38.683Z,100051.34
2022-12-16T16:03:36.204Z,100060.06
2022-12-16T16:06:22.146Z,100055.81
2022-12-16T16:09:10.512Z,100061.06
2022-12-16T16:11:55.747Z,100057.66
2022-12-16T16:14:41.634Z,100057.69
2022-12-16T16:17:39.765Z,100063.56
2022-12-16T16:20:28.532Z,100065.25
2022-12-16T16:23:15.225Z,100067.81
2022-12-16T16:26:03.815Z,100069.59
2022-12-16T16:28:50.708Z,100078.91
2022-12-16T16:31:37.161Z,100083.22
2022-12-16T16:34:24.933Z,100086.72
2022-12-16T16:37:12.102Z,100086.69
2022-12-16T16:39:59.530Z,100101.25
2022-12-16T16:42:45.971Z,100100.44
2022-12-16T16:45:33.666Z,100104.75
2022-12-16T16:48:36.089Z,100109.00
2022-12-16T16:51:24.687Z,100107.28
2022-12-16T16:54:12.552Z,100118.41
2022-12-16T16:57:04.641Z,100113.34
2022-12-16T16:59:50.277Z,100118.47
2022-12-16T17:02:41.184Z,100115.94
2022-12-16T17:05:30.435Z,100113.47
2022-12-16T17:08:20.273Z,100126.13
2022-12-16T17:11:07.115Z,100128.66
2022-12-16T17:13:53.027Z,100126.97
2022-12-16T17:16:39.198Z,100132.88
2022-12-16T17:19:26.539Z,100131.13
2022-12-16T17:22:38.849Z,100146.25
2022-12-16T17:25:27.103Z,100142.94
2022-12-16T17:28:22.175Z,100147.09
2022-12-16T17:31:09.230Z,100157.25
2022-12-16T17:33:56.516Z,100154.84
2022-12-16T17:36:44.761Z,100158.34
2022-12-16T17:39:35.477Z,100168.56
2022-12-16T17:42:28.952Z,100165.16
2022-12-16T17:45:14.841Z,100169.38
2022-12-16T17:48:00.349Z,100170.31
2022-12-16T17:50:47.840Z,100173.75
2022-12-16T17:53:34.421Z,100176.31
2022-12-16T17:56:22.338Z,100183.06
2022-12-16T17:59:25.762Z,100182.25
2022-12-16T18:02:25.398Z,100187.31
2022-12-16T18:05:38.831Z,100187.31
2022-12-16T18:08:29.676Z,100195.72
2022-12-16T18:14:35.043Z,100198.31
2022-12-16T18:17:23.000Z,100200.88
2022-12-16T18:20:11.812Z,100205.09
2022-12-16T18:23:23.765Z,100194.91
2022-12-16T18:26:15.868Z,100210.13
2022-12-16T18:29:05.561Z,100203.34
2022-12-16T18:31:58.618Z,100216.84
2022-12-16T18:34:55.003Z,100205.84
2022-12-16T18:37:42.233Z,100214.22
2022-12-16T18:40:31.264Z,100220.13
2022-12-16T18:43:16.549Z,100225.25
2022-12-16T18:46:02.011Z,100231.16
2022-12-16T18:48:47.390Z,100246.34
2022-12-16T18:51:34.291Z,100248.78
2022-12-16T18:54:20.140Z,100255.44
2022-12-16T18:57:05.680Z,100252.06
2022-12-16T18:59:50.930Z,100248.78
2022-12-16T19:02:36.735Z,100259.81
2022-12-16T19:05:22.673Z,100260.72
2022-12-16T19:08:14.120Z,100262.44
2022-12-16T19:14:09.004Z,100270.09
2022-12-16T19:16:54.775Z,100279.41
2022-12-16T19:19:41.396Z,100281.03
2022-12-16T19:22:35.263Z,100287.81
2022-12-16T19:29:00.540Z,100287.81
2022-12-16T19:31:54.408Z,100295.41
2022-12-16T19:34:45.123Z,100302.97
2022-12-16T19:37:35.236Z,100297.03
2022-12-16T19:40:30.016Z,100310.50
2022-12-16T19:43:15.886Z,100308.81
2022-12-16T19:46:04.385Z,100322.38
2022-12-16T19:48:50.833Z,100316.44
2022-12-16T19:51:37.312Z,100320.72
2022-12-16T19:54:30.888Z,100320.75
2022-12-16T19:57:20.292Z,100325.81
2022-12-16T20:00:09.544Z,100326.66
2022-12-16T20:09:48.808Z,100339.31
2022-12-16T20:13:18.537Z,100348.56
2022-12-16T20:16:19.898Z,100351.94
2022-12-16T20:19:09.472Z,100346.81
2022-12-16T20:21:56.333Z,100363.50
2022-12-16T20:24:47.464Z,100359.09
2022-12-16T20:27:34.267Z,100363.22
2022-12-16T20:30:21.328Z,100366.66
2022-12-16T20:33:07.849Z,100372.66
2022-12-16T20:36:15.025Z,100371.03
2022-12-16T20:39:01.187Z,100372.81
2022-12-16T20:41:48.677Z,100381.34
2022-12-16T20:44:34.251Z,100380.59
2022-12-16T20:47:21.011Z,100385.63
2022-12-16T20:50:06.771Z,100380.50
2022-12-16T20:56:21.242Z,100394.78
2022-12-16T20:59:08.844Z,100404.00
2022-12-16T21:05:07.939Z,100415.72
2022-12-16T21:08:05.793Z,100417.38
2022-12-16T21:10:56.504Z,100417.38
2022-12-16T21:13:44.377Z,100422.44
2022-12-16T21:16:34.724Z,100422.34
2022-12-16T21:19:34.514Z,100430.78
2022-12-16T21:22:20.369Z,100433.41
2022-12-16T21:25:08.466Z,100440.09
2022-12-16T21:27:53.727Z,100439.94
2022-12-16T21:30:42.591Z,100441.69
2022-12-16T21:33:37.671Z,100444.22
2022-12-16T21:36:24.787Z,100445.81
2022-12-16T21:39:10.318Z,100453.34
2022-12-16T21:44:58.564Z,100459.31
2022-12-16T21:47:46.787Z,100467.06
2022-12-16T21:50:34.248Z,100464.50
2022-12-16T21:53:20.890Z,100467.88
2022-12-16T21:56:11.673Z,100467.03
2022-12-16T21:59:11.927Z,100467.81
2022-12-16T22:02:00.991Z,100477.00
2022-12-16T22:04:50.307Z,100481.22
2022-12-16T22:07:35.998Z,100487.13
2022-12-16T22:10:26.728Z,100488.78
2022-12-16T22:20:57.940Z,100499.47
2022-12-16T22:24:04.835Z,100502.16
2022-12-16T22:26:53.357Z,100506.47
2022-12-16T22:33:02.365Z,100507.34
2022-12-16T22:35:55.653Z,100521.59
2022-12-16T22:38:40.733Z,100526.41
2022-12-16T22:41:27.864Z,100534.88
2022-12-16T22:47:43.541Z,100548.34
2022-12-16T22:50:32.015Z,100561.69
2022-12-16T22:53:35.460Z,100559.19
2022-12-16T22:56:31.208Z,100568.34
2022-12-16T22:59:17.340Z,100559.06
2022-12-16T23:02:10.515Z,100564.06
2022-12-16T23:04:56.577Z,100558.03
2022-12-16T23:07:49.842Z,100575.50
2022-12-16T23:10:38.443Z,100571.25
2022-12-16T23:16:57.753Z,100577.22
2022-12-16T23:23:28.595Z,100577.19
2022-12-16T23:26:15.219Z,100582.31
2022-12-16T23:29:01.694Z,100585.53
2022-12-16T23:31:48.129Z,100582.97
2022-12-16T23:32:30.477Z,100412.38
2022-12-16T23:34:45.492Z,100596.06
2022-12-16T23:37:38.964Z,100603.00
2022-12-16T23:40:24.719Z,100608.66
2022-12-16T23:43:12.403Z,100598.53
2022-12-16T23:45:58.123Z,100604.22
2022-12-16T23:48:47.455Z,100607.06
2022-12-16T23:51:50.646Z,100605.47
2022-12-16T23:57:54.640Z,100614.78
